createdAt,value
2022-12-17T00:01:02.150Z,19.25
2022-12-17T00:03:34.841Z,17.15
2022-12-17T00:06:06.717Z,18.58
2022-12-17T00:08:38.100Z,17.83
2022-12-17T00:11:09.554Z,17.15
2022-12-17T00:13:41.165Z,17.93
2022-12-17T00:16:12.675Z,20.02
2022-12-17T00:18:44.121Z,18.17
2022-12-17T00:21:15.521Z,19.08
2022-12-17T00:23:47.807Z,18.85
2022-12-17T00:26:19.254Z,19.77
2022-12-17T00:28:50.749Z,20.20
2022-12-17T00:31:25.688Z,19.73
2022-12-17T00:33:57.321Z,19.83
2022-12-17T00:36:28.760Z,20.23
2022-12-17T00:39:00.198Z,19.60
2022-12-17T00:41:31.677Z,20.25
2022-12-17T00:44:03.214Z,19.33
2022-12-17T00:46:34.685Z,18.85
2022-12-17T00:49:06.206Z,19.88
2022-12-17T00:51:37.609Z,20.50
2022-12-17T00:54:09.408Z,18.55
2022-12-17T00:56:40.826Z,20.10
2022-12-17T00:59:12.311Z,21.80
2022-12-17T01:01:43.949Z,21.25
2022-12-17T01:04:15.532Z,18.75
2022-12-17T01:06:46.931Z,21.23
2022-12-17T01:09:18.491Z,19.27
2022-12-17T01:11:49.934Z,18.33
2022-12-17T01:14:21.523Z,18.87
2022-12-17T01:16:52.954Z,19.23
2022-12-17T01:19:27.631Z,18.70
2022-12-17T01:21:59.053Z,19.80
2022-12-17T01:24:30.774Z,19.80
2022-12-17T01:27:02.174Z,18.30
2022-12-17T01:29:33.625Z,19.90
2022-12-17T01:32:05.226Z,19.60
2022-12-17T01:34:36.742Z,18.33
2022-12-17T01:37:08.135Z,19.92
2022-12-17T01:39:39.640Z,20.55
2022-12-17T01:42:14.201Z,20.27
2022-12-17T01:44:54.404Z,20.40
2022-12-17T01:47:30.404Z,20.17
2022-12-17T01:50:01.890Z,20.60
2022-12-17T01:52:33.905Z,19.65
2022-12-17T01:55:06.749Z,19.42
2022-12-17T01:57:38.850Z,21.00
2022-12-17T02:00:13.917Z,19.73
2022-12-17T02:02:45.509Z,19.52
2022-12-17T02:05:18.597Z,18.10
2022-12-17T02:08:02.931Z,19.95
2022-12-17T02:10:53.724Z,21.33
2022-12-17T02:13:34.728Z,19.85
2022-12-17T02:16:09.057Z,19.88
2022-12-17T02:18:48.742Z,18.80
2022-12-17T02:21:21.623Z,19.58
2022-12-17T02:24:12.028Z,20.17
2022-12-17T02:26:47.098Z,19.88
2022-12-17T02:29:20.633Z,21.95
2022-12-17T02:31:53.022Z,20.35
2022-12-17T02:34:24.687Z,21.67
2022-12-17T02:36:56.111Z,18.38
2022-12-17T02:39:27.694Z,18.80
2022-12-17T02:41:59.583Z,19.98
2022-12-17T02:44:34.482Z,19.63
2022-12-17T02:47:08.664Z,20.23
2022-12-17T02:49:40.168Z,20.97
2022-12-17T02:52:12.927Z,19.33
2022-12-17T02:54:44.332Z,18.70
2022-12-17T02:57:15.837Z,19.08
2022-12-17T02:59:47.270Z,18.53
2022-12-17T03:02:18.848Z,18.83
2022-12-17T03:04:50.402Z,21.17
2022-12-17T03:07:21.856Z,19.88
2022-12-17T03:09:53.238Z,23.55
2022-12-17T03:12:24.773Z,18.20
2022-12-17T03:14:56.221Z,18.95
2022-12-17T03:17:29.835Z,17.80
2022-12-17T03:20:01.228Z,20.17
2022-12-17T03:22:32.729Z,18.40
2022-12-17T03:25:04.515Z,18.27
2022-12-17T03:27:35.936Z,18.17
2022-12-17T03:30:07.724Z,17.10
2022-12-17T03:32:39.152Z,18.73
2022-12-17T03:35:10.556Z,19.00
2022-12-17T03:37:42.021Z,20.00
2022-12-17T03:40:13.496Z,19.40
2022-12-17T03:42:44.907Z,20.08
2022-12-17T03:45:16.457Z,21.17
2022-12-17T03:47:47.872Z,19.73
2022-12-17T03:50:19.288Z,18.77
2022-12-17T03:52:50.743Z,20.53
2022-12-17T03:55:22.175Z,20.13
2022-12-17T03:57:53.639Z,21.55
2022-12-17T04:00:25.056Z,23.00
2022-12-17T04:02:56.692Z,22.73
2022-12-17T04:05:28.241Z,23.85
2022-12-17T04:07:59.676Z,23.48
2022-12-17T04:10:31.128Z,22.73
2022-12-17T04:13:02.532Z,23.42
2022-12-17T04:15:34.068Z,24.38
2022-12-17T04:18:05.597Z,22.25
2022-12-17T04:20:37.058Z,23.17
2022-12-17T04:23:08.501Z,23.83
2022-12-17T04:25:39.971Z,23.48
2022-12-17T04:28:11.380Z,25.17
2022-12-17T04:30:42.856Z,24.13
2022-12-17T04:33:14.269Z,26.60
2022-12-17T04:35:45.683Z,27.02
2022-12-17T04:38:17.116Z,23.02
2022-12-17T04:40:48.918Z,22.70
2022-12-17T04:43:20.312Z,24.43
2022-12-17T04:45:51.801Z,23.08
2022-12-17T04:48:23.358Z,23.35
2022-12-17T04:50:54.956Z,24.03
2022-12-17T04:53:26.367Z,24.65
2022-12-17T04:55:57.794Z,24.73
2022-12-17T04:58:32.878Z,23.02
2022-12-17T05:01:04.280Z,24.83
2022-12-17T05:03:36.144Z,25.50
2022-12-17T05:06:09.231Z,24.65
2022-12-17T05:08:41.648Z,26.25
2022-12-17T05:11:13.212Z,25.00
2022-12-17T05:13:44.704Z,25.27
2022-12-17T05:16:16.678Z,26.38
2022-12-17T05:18:48.094Z,26.75
2022-12-17T05:21:19.524Z,26.98
2022-12-17T05:23:50.943Z,26.95
2022-12-17T05:26:28.148Z,28.88
2022-12-17T05:28:59.533Z,27.58
2022-12-17T05:31:31.030Z,27.50
2022-12-17T05:34:02.527Z,32.40
2022-12-17T05:36:34.044Z,27.60
2022-12-17T05:39:05.494Z,29.25
2022-12-17T05:41:37.010Z,28.42
2022-12-17T05:44:08.469Z,29.07
2022-12-17T05:46:39.991Z,26.63
2022-12-17T05:49:11.474Z,25.95
2022-12-17T05:51:42.875Z,27.67
2022-12-17T05:54:14.258Z,28.33
2022-12-17T05:56:45.679Z,28.55
2022-12-17T05:59:17.090Z,26.67
2022-12-17T06:01:48.595Z,28.02
2022-12-17T06:04:20.088Z,31.80
2022-12-17T06:06:51.507Z,30.95
2022-12-17T06:09:23.744Z,33.60
2022-12-17T06:11:59.471Z,31.17
2022-12-17T06:14:33.867Z,30.95
2022-12-17T06:17:05.304Z,34.72
2022-12-17T06:19:36.739Z,37.43
2022-12-17T06:22:08.146Z,36.00
2022-12-17T06:24:44.240Z,37.08
2022-12-17T06:27:17.443Z,38.22
2022-12-17T06:29:48.869Z,37.35
2022-12-17T06:32:20.264Z,41.33
2022-12-17T06:34:51.668Z,39.65
2022-12-17T06:37:23.057Z,39.10
2022-12-17T06:39:54.494Z,39.67
2022-12-17T06:42:25.881Z,40.10
2022-12-17T06:44:57.309Z,38.60
2022-12-17T06:47:28.707Z,40.80
2022-12-17T06:50:01.601Z,39.00
2022-12-17T06:52:33.237Z,39.88
2022-12-17T06:55:04.918Z,40.00
2022-12-17T06:57:40.469Z,38.83
2022-12-17T07:00:16.421Z,41.05
2022-12-17T07:02:47.955Z,38.63
2022-12-17T07:05:19.441Z,40.08
2022-12-17T07:07:57.492Z,37.37
2022-12-17T07:10:29.022Z,38.47
2022-12-17T07:13:05.408Z,40.53
2022-12-17T07:15:36.859Z,39.75
2022-12-17T07:18:08.387Z,49.17
2022-12-17T07:20:39.850Z,43.05
2022-12-17T07:23:11.281Z,39.75
2022-12-17T07:25:46.014Z,37.17
2022-12-17T07:28:17.835Z,40.40
2022-12-17T07:30:55.505Z,38.63
2022-12-17T07:33:27.275Z,42.15
2022-12-17T07:35:58.706Z,36.40
2022-12-17T07:38:30.497Z,35.55
2022-12-17T07:41:01.965Z,35.38
2022-12-17T07:43:33.690Z,34.20
2022-12-17T07:46:05.264Z,33.28
2022-12-17T07:48:36.702Z,34.65
2022-12-17T07:51:08.165Z,34.92
2022-12-17T07:53:39.654Z,35.30
2022-12-17T07:56:11.198Z,37.25
2022-12-17T07:58:42.641Z,33.70
2022-12-17T08:01:14.326Z,35.83
2022-12-17T08:03:46.400Z,33.95
2022-12-17T08:06:17.951Z,34.88
2022-12-17T08:08:49.341Z,35.77
2022-12-17T08:11:21.629Z,38.05
2022-12-17T08:13:53.073Z,34.87
2022-12-17T08:16:24.531Z,31.00
2022-12-17T08:18:55.938Z,30.95
2022-12-17T08:21:27.336Z,33.85
2022-12-17T08:23:58.852Z,34.90
2022-12-17T08:26:30.288Z,31.20
2022-12-17T08:29:01.671Z,31.52
2022-12-17T08:31:33.119Z,32.20
2022-12-17T08:34:07.892Z,31.30
2022-12-17T08:36:39.685Z,29.92
2022-12-17T08:39:11.097Z,32.30
2022-12-17T08:41:42.526Z,29.05
2022-12-17T08:44:13.970Z,29.50
2022-12-17T08:46:45.362Z,28.77
2022-12-17T08:49:16.849Z,31.60
2022-12-17T08:51:48.286Z,29.80
2022-12-17T08:54:19.742Z,30.13
2022-12-17T08:56:51.191Z,33.63
2022-12-17T08:59:23.811Z,27.70
2022-12-17T09:01:55.297Z,29.08
2022-12-17T09:04:26.809Z,29.63
2022-12-17T09:06:58.216Z,26.47
2022-12-17T09:09:29.668Z,28.42
2022-12-17T09:12:01.148Z,26.17
2022-12-17T09:14:32.553Z,27.42
2022-12-17T09:17:04.176Z,29.60
2022-12-17T09:19:35.650Z,27.88
2022-12-17T09:22:07.072Z,29.45
2022-12-17T09:24:41.364Z,27.70
2022-12-17T09:27:12.842Z,30.55
2022-12-17T09:29:44.282Z,28.08
2022-12-17T09:32:15.692Z,26.63
2022-12-17T09:34:47.138Z,28.77
2022-12-17T09:37:18.572Z,29.48
2022-12-17T09:39:50.089Z,28.55
2022-12-17T09:42:38.416Z,27.90
2022-12-17T09:45:27.681Z,27.17
2022-12-17T09:48:13.919Z,27.00
2022-12-17T09:50:46.732Z,27.65
2022-12-17T09:53:32.444Z,28.17
2022-12-17T09:56:04.557Z,30.00
2022-12-17T09:58:38.838Z,27.63
2022-12-17T10:01:17.835Z,26.67
2022-12-17T10:03:49.835Z,30.27
2022-12-17T10:06:27.918Z,28.65
2022-12-17T10:09:01.569Z,28.20
2022-12-17T10:11:35.465Z,28.27
2022-12-17T10:14:21.341Z,27.35
2022-12-17T10:16:52.792Z,25.95
2022-12-17T10:19:36.915Z,25.08
2022-12-17T10:22:10.812Z,25.45
2022-12-17T10:24:45.512Z,25.05
2022-12-17T10:27:20.096Z,24.35
2022-12-17T10:29:51.506Z,24.70
2022-12-17T10:32:25.362Z,24.75
2022-12-17T10:35:03.334Z,23.85
2022-12-17T10:37:36.792Z,24.17
2022-12-17T10:40:23.117Z,24.63
2022-12-17T10:42:54.543Z,24.60
2022-12-17T10:45:28.995Z,25.00
2022-12-17T10:48:00.402Z,23.98
2022-12-17T10:50:32.933Z,24.27
2022-12-17T10:53:19.879Z,24.65
2022-12-17T10:55:58.068Z,26.45
2022-12-17T10:58:29.861Z,25.50
2022-12-17T11:01:02.861Z,26.80
2022-12-17T11:03:48.677Z,25.38
2022-12-17T11:06:26.963Z,24.23
2022-12-17T11:09:03.378Z,25.13
2022-12-17T11:11:34.948Z,24.67
2022-12-17T11:14:09.770Z,24.63
2022-12-17T11:16:51.140Z,24.02
2022-12-17T11:19:40.832Z,24.30
2022-12-17T11:22:25.096Z,22.88
2022-12-17T11:25:06.195Z,21.85
2022-12-17T11:27:49.422Z,22.17
2022-12-17T11:30:23.152Z,22.35
2022-12-17T11:33:16.424Z,21.50
2022-12-17T11:35:59.616Z,22.95
2022-12-17T11:38:37.542Z,21.35
2022-12-17T11:41:18.038Z,21.80
2022-12-17T11:44:09.409Z,22.23
2022-12-17T11:47:05.300Z,21.50
2022-12-17T11:49:59.531Z,21.50
2022-12-17T11:52:46.045Z,23.60
2022-12-17T11:55:45.720Z,20.92
2022-12-17T11:58:51.964Z,20.70
2022-12-17T12:01:44.604Z,21.03
2022-12-17T12:04:47.137Z,20.83
2022-12-17T12:07:36.997Z,20.63
2022-12-17T12:10:19.901Z,19.95
2022-12-17T12:13:27.155Z,19.50
2022-12-17T12:16:12.679Z,19.60
2022-12-17T12:18:50.098Z,19.60
2022-12-17T12:21:38.685Z,19.42
2022-12-17T12:24:37.820Z,19.10
2022-12-17T12:27:42.206Z,19.73
2022-12-17T12:30:21.717Z,19.95
2022-12-17T12:33:17.188Z,20.83
2022-12-17T12:35:48.671Z,18.92
2022-12-17T12:38:28.565Z,19.05
2022-12-17T12:41:16.628Z,20.35
2022-12-17T12:43:54.082Z,20.00
2022-12-17T12:46:38.162Z,18.65
2022-12-17T12:49:34.720Z,19.70
2022-12-17T12:52:06.457Z,20.38
2022-12-17T12:54:47.081Z,20.50
2022-12-17T12:57:34.004Z,20.75
2022-12-17T13:00:05.970Z,20.98
2022-12-17T13:02:37.801Z,20.83
2022-12-17T13:05:53.941Z,20.25
2022-12-17T13:08:25.775Z,21.33
2022-12-17T13:10:57.261Z,21.88
2022-12-17T13:13:39.714Z,21.73
2022-12-17T13:16:43.073Z,19.88
2022-12-17T13:19:20.400Z,20.25
2022-12-17T13:21:51.839Z,20.45
2022-12-17T13:24:26.015Z,20.85
2022-12-17T13:26:57.505Z,21.80
2022-12-17T13:29:33.187Z,21.77
2022-12-17T13:32:27.491Z,20.77
2022-12-17T13:35:05.661Z,22.27
2022-12-17T13:38:04.570Z,22.83
2022-12-17T13:40:44.426Z,23.97
2022-12-17T13:43:18.692Z,22.27
2022-12-17T13:45:51.908Z,23.17
2022-12-17T13:48:26.409Z,21.35
2022-12-17T13:51:01.285Z,21.92
2022-12-17T13:53:32.934Z,20.90
2022-12-17T13:56:04.545Z,21.40
2022-12-17T13:58:36.393Z,21.27
2022-12-17T14:01:11.592Z,22.48
2022-12-17T14:04:05.932Z,24.57
2022-12-17T14:06:38.539Z,25.00
2022-12-17T14:09:16.736Z,25.45
2022-12-17T14:11:49.387Z,25.13
2022-12-17T14:14:30.573Z,25.88
2022-12-17T14:17:02.261Z,25.80
2022-12-17T14:19:33.928Z,25.13
2022-12-17T14:22:05.592Z,26.98
2022-12-17T14:24:38.372Z,27.67
2022-12-17T14:27:26.852Z,27.67
2022-12-17T14:29:58.307Z,26.15
2022-12-17T14:32:35.070Z,26.50
2022-12-17T14:35:06.688Z,27.52
2022-12-17T14:37:38.171Z,25.48
2022-12-17T14:40:14.549Z,25.00
2022-12-17T14:42:46.157Z,23.95
2022-12-17T14:45:17.585Z,25.83
2022-12-17T14:48:02.586Z,25.13
2022-12-17T14:50:37.264Z,25.60
2022-12-17T14:53:26.454Z,24.33
2022-12-17T14:55:59.278Z,27.98
2022-12-17T14:58:31.402Z,27.10
2022-12-17T15:01:13.715Z,25.90
2022-12-17T15:03:45.543Z,26.70
2022-12-17T15:06:19.723Z,28.27
2022-12-17T15:08:51.491Z,28.13
2022-12-17T15:11:23.777Z,28.48
2022-12-17T15:13:56.769Z,29.10
2022-12-17T15:16:28.554Z,30.23
2022-12-17T15:18:59.989Z,31.55
2022-12-17T15:21:36.344Z,31.85
2022-12-17T15:24:35.348Z,31.25
2022-12-17T15:27:19.103Z,33.53
2022-12-17T15:29:53.902Z,34.50
2022-12-17T15:32:25.795Z,32.55
2022-12-17T15:34:59.761Z,36.85
2022-12-17T15:37:31.344Z,38.90
2022-12-17T15:40:11.039Z,38.20
2022-12-17T15:42:43.880Z,37.30
2022-12-17T15:45:18.323Z,40.08
2022-12-17T15:47:56.822Z,40.55
2022-12-17T15:50:28.298Z,43.03
2022-12-17T15:52:59.704Z,41.08
2022-12-17T15:55:31.718Z,45.33
2022-12-17T15:58:03.708Z,43.40
2022-12-17T16:00:35.211Z,42.05
2022-12-17T16:03:06.701Z,45.10
2022-12-17T16:05:39.152Z,45.60
2022-12-17T16:08:15.608Z,44.07
2022-12-17T16:10:47.012Z,46.35
2022-12-17T16:13:19.090Z,45.72
2022-12-17T16:16:03.887Z,44.83
2022-12-17T16:18:36.671Z,44.35
2022-12-17T16:21:08.832Z,46.60
2022-12-17T16:23:40.275Z,47.30
2022-12-17T16:26:12.101Z,46.55
2022-12-17T16:28:43.792Z,46.28
2022-12-17T16:31:15.587Z,47.13
2022-12-17T16:33:47.446Z,49.65
2022-12-17T16:36:21.223Z,49.13
2022-12-17T16:38:54.340Z,47.28
2022-12-17T16:41:25.733Z,50.55
2022-12-17T16:43:57.273Z,49.90
2022-12-17T16:46:29.950Z,49.28
2022-12-17T16:49:13.771Z,50.22
2022-12-17T16:51:46.970Z,51.90
2022-12-17T16:54:23.418Z,50.92
2022-12-17T16:56:55.096Z,53.40
2022-12-17T16:59:26.513Z,52.55
2022-12-17T17:01:58.175Z,52.60
2022-12-17T17:04:29.642Z,49.67
2022-12-17T17:07:01.094Z,53.03
2022-12-17T17:09:32.492Z,52.15
2022-12-17T17:12:04.157Z,51.47
2022-12-17T17:14:35.995Z,52.33
2022-12-17T17:17:07.430Z,54.47
2022-12-17T17:19:38.883Z,53.45
2022-12-17T17:22:10.275Z,53.50
2022-12-17T17:24:41.708Z,58.00
2022-12-17T17:27:13.125Z,54.08
2022-12-17T17:29:44.601Z,55.85
2022-12-17T17:32:16.052Z,54.85
2022-12-17T17:34:47.516Z,57.22
2022-12-17T17:37:18.934Z,56.58
2022-12-17T17:39:50.337Z,55.92
2022-12-17T17:42:21.786Z,58.50
2022-12-17T17:44:53.224Z,59.90
2022-12-17T17:47:24.619Z,59.40
2022-12-17T17:49:56.085Z,56.33
2022-12-17T17:52:27.500Z,59.08
2022-12-17T17:54:58.917Z,56.37
2022-12-17T17:57:30.417Z,60.33
2022-12-17T18:00:01.802Z,60.88
2022-12-17T18:02:33.307Z,63.13
2022-12-17T18:05:05.112Z,63.20
2022-12-17T18:07:36.505Z,65.35
2022-12-17T18:10:08.423Z,61.17
2022-12-17T18:12:39.881Z,61.15
2022-12-17T18:15:16.430Z,64.57
2022-12-17T18:17:51.974Z,65.50
2022-12-17T18:20:23.384Z,64.15
2022-12-17T18:22:54.849Z,63.43
2022-12-17T18:25:32.884Z,63.47
2022-12-17T18:28:08.660Z,63.58
2022-12-17T18:30:40.082Z,63.10
2022-12-17T18:33:11.528Z,65.15
2022-12-17T18:35:42.908Z,63.83
2022-12-17T18:38:14.342Z,63.72
2022-12-17T18:40:45.792Z,61.60
2022-12-17T18:43:17.225Z,64.40
2022-12-17T18:45:49.001Z,62.72
2022-12-17T18:48:20.366Z,63.67
2022-12-17T18:50:51.778Z,62.08
2022-12-17T18:53:24.828Z,63.97
2022-12-17T18:55:56.284Z,66.22
2022-12-17T18:58:27.732Z,62.67
2022-12-17T19:00:59.282Z,67.25
2022-12-17T19:03:31.088Z,67.15
2022-12-17T19:06:05.624Z,64.28
2022-12-17T19:08:37.316Z,66.30
2022-12-17T19:11:10.439Z,68.75
2022-12-17T19:13:41.901Z,65.35
2022-12-17T19:16:18.640Z,65.60
2022-12-17T19:18:58.219Z,61.67
2022-12-17T19:21:31.124Z,65.68
2022-12-17T19:24:05.566Z,67.40
2022-12-17T19:26:37.036Z,66.90
2022-12-17T19:29:08.673Z,67.30
2022-12-17T19:31:40.517Z,65.70
2022-12-17T19:34:14.156Z,67.00
2022-12-17T19:36:46.797Z,64.85
2022-12-17T19:39:20.009Z,67.13
2022-12-17T19:41:51.656Z,64.68
2022-12-17T19:44:23.247Z,64.73
2022-12-17T19:46:54.636Z,68.13
2022-12-17T19:49:26.027Z,64.47
2022-12-17T19:51:57.433Z,65.53
2022-12-17T19:54:29.084Z,63.55
2022-12-17T19:57:00.487Z,62.83
2022-12-17T19:59:31.929Z,59.40
2022-12-17T20:02:03.516Z,62.40
2022-12-17T20:04:35.122Z,64.85
2022-12-17T20:07:06.594Z,62.85
2022-12-17T20:09:38.061Z,62.63
2022-12-17T20:12:09.529Z,64.10
2022-12-17T20:14:41.005Z,63.28
2022-12-17T20:17:12.486Z,62.13
2022-12-17T20:19:43.935Z,62.53
2022-12-17T20:22:15.391Z,60.15
2022-12-17T20:24:46.827Z,60.63
2022-12-17T20:27:18.224Z,57.80
2022-12-17T20:29:49.605Z,59.37
2022-12-17T20:32:21.077Z,57.83
2022-12-17T20:34:52.520Z,61.75
2022-12-17T20:37:24.019Z,59.50
2022-12-17T20:39:55.504Z,59.33
2022-12-17T20:42:26.934Z,55.70
2022-12-17T20:44:58.402Z,55.80
2022-12-17T20:47:29.890Z,54.58
2022-12-17T20:50:01.402Z,55.95
2022-12-17T20:52:32.793Z,54.90
2022-12-17T20:55:04.524Z,55.33
2022-12-17T20:57:35.931Z,55.15
2022-12-17T21:00:08.397Z,56.05
2022-12-17T21:02:40.006Z,55.40
2022-12-17T21:05:11.615Z,53.13
2022-12-17T21:07:43.004Z,53.90
2022-12-17T21:10:14.416Z,56.10
2022-12-17T21:12:45.806Z,53.97
2022-12-17T21:15:17.344Z,54.95
2022-12-17T21:17:48.753Z,54.37
2022-12-17T21:20:20.724Z,52.92
2022-12-17T21:22:52.529Z,57.58
2022-12-17T21:25:23.933Z,55.78
2022-12-17T21:27:55.389Z,54.50
2022-12-17T21:30:26.851Z,57.07
2022-12-17T21:32:58.340Z,58.33
2022-12-17T21:35:29.801Z,56.38
2022-12-17T21:38:01.290Z,57.00
2022-12-17T21:40:35.479Z,56.78
2022-12-17T21:43:07.125Z,57.13
2022-12-17T21:45:42.167Z,54.45
2022-12-17T21:48:15.110Z,56.85
2022-12-17T21:50:46.919Z,56.42
2022-12-17T21:53:18.847Z,56.72
2022-12-17T21:56:05.428Z,55.28
2022-12-17T21:58:37.523Z,57.90
2022-12-17T22:01:24.494Z,53.05
2022-12-17T22:03:58.524Z,53.83
2022-12-17T22:06:38.133Z,55.47
2022-12-17T22:09:13.984Z,53.35
2022-12-17T22:12:03.294Z,55.15
2022-12-17T22:14:34.753Z,53.85
2022-12-17T22:17:06.223Z,51.33
2022-12-17T22:19:37.664Z,52.55
2022-12-17T22:22:09.092Z,54.50
2022-12-17T22:24:40.525Z,54.13
2022-12-17T22:27:12.155Z,53.58
2022-12-17T22:29:43.593Z,52.40
2022-12-17T22:32:15.023Z,55.58
2022-12-17T22:36:12.752Z,51.47
2022-12-17T22:40:34.315Z,50.65
2022-12-17T22:44:33.364Z,48.97
2022-12-17T22:44:41.788Z,49.40
2022-12-17T22:46:19.537Z,52.78
2022-12-17T22:48:51.208Z,53.33
2022-12-17T22:51:32.832Z,51.33
2022-12-17T22:54:09.224Z,49.10
2022-12-17T22:57:34.393Z,53.47
2022-12-17T22:59:34.417Z,50.45
2022-12-17T23:02:05.897Z,53.45
2022-12-17T23:04:37.369Z,53.70
2022-12-17T23:07:08.870Z,50.90
2022-12-17T23:09:40.349Z,52.60
2022-12-17T23:12:11.806Z,52.05
2022-12-17T23:14:43.242Z,51.30
2022-12-17T23:17:14.717Z,49.78
2022-12-17T23:19:46.105Z,50.27
2022-12-17T23:22:21.978Z,50.85
2022-12-17T23:24:53.868Z,47.05
2022-12-17T23:27:25.336Z,47.25
2022-12-17T23:29:56.799Z,47.08
2022-12-17T23:32:28.249Z,44.97
2022-12-17T23:34:59.703Z,46.72
2022-12-17T23:37:35.084Z,45.80
2022-12-17T23:40:11.609Z,49.53
2022-12-17T23:42:43.048Z,47.55
2022-12-17T23:45:14.463Z,45.08
2022-12-17T23:47:45.876Z,47.80
2022-12-17T23:50:17.404Z,49.95
2022-12-17T23:52:48.810Z,46.72
2022-12-17T23:55:20.200Z,49.13
2022-12-17T23:57:51.590Z,51.03
